Streetsville, Canada
Current Conditions -  °F | °C
As of 2:00 PM on Friday 21 Nov 2014 (Local Time) from CYYZ Reporting Station
Broken Clouds Broken Clouds  
Wind Chill: 18°   Ceiling: 4900
Heat Index: 28°   Visibility: 15mi
Dew Point: 14°   Wind: 12mph
Humidity: 55%   Direction: 280°W
Pressure: 30.37"   Gusts: 17mph
Location:  43.58°N, 79.72°W
Report Text: CYYZ 211900Z 28010G15KT 15SM SCT041 BKN049 M02/M10 A3037 RMK CU3SC3 SLP295
Loading
Personal Weather Stations






























Interactive Weather Map New forecast layout! Learn more

10-Day Weather Forecast

Advertisements
Track Severe Weather on mobile